sensor_id;sensor_type;location;lat;lon;timestamp;temperature;humidity
14144;DHT22;7152;48.348;10.980;2023-05-10T00:02:02;14.20;99.90
14144;DHT22;7152;48.348;10.980;2023-05-10T00:04:28;14.20;99.90
14144;DHT22;7152;48.348;10.980;2023-05-10T00:06:54;14.20;99.90
14144;DHT22;7152;48.348;10.980;2023-05-10T00:09:20;14.20;99.90
14144;DHT22;7152;48.348;10.980;2023-05-10T00:11:45;14.20;99.90
14144;DHT22;7152;48.348;10.980;2023-05-10T00:14:11;14.20;99.90
14144;DHT22;7152;48.348;10.980;2023-05-10T00:16:37;14.20;99.90
14144;DHT22;7152;48.348;10.980;2023-05-10T00:19:03;14.20;99.90
14144;DHT22;7152;48.348;10.980;2023-05-10T00:21:28;14.20;99.90
14144;DHT22;7152;48.348;10.980;2023-05-10T00:23:54;14.20;99.90
14144;DHT22;7152;48.348;10.980;2023-05-10T00:26:20;14.10;99.90
14144;DHT22;7152;48.348;10.980;2023-05-10T00:28:46;14.00;99.90
14144;DHT22;7152;48.348;10.980;2023-05-10T00:31:12;14.00;99.90
14144;DHT22;7152;48.348;10.980;2023-05-10T00:33:37;14.10;99.90
14144;DHT22;7152;48.348;10.980;2023-05-10T00:36:03;14.00;99.90
14144;DHT22;7152;48.348;10.980;2023-05-10T00:38:29;14.00;99.90
14144;DHT22;7152;48.348;10.980;2023-05-10T00:40:54;14.10;99.90
14144;DHT22;7152;48.348;10.980;2023-05-10T00:43:20;14.00;99.90
14144;DHT22;7152;48.348;10.980;2023-05-10T00:45:46;14.00;99.90
14144;DHT22;7152;48.348;10.980;2023-05-10T00:48:12;14.00;99.90
14144;DHT22;7152;48.348;10.980;2023-05-10T00:50:38;14.00;99.90
14144;DHT22;7152;48.348;10.980;2023-05-10T00:53:04;14.00;99.90
14144;DHT22;7152;48.348;10.980;2023-05-10T00:55:30;14.00;99.90
14144;DHT22;7152;48.348;10.980;2023-05-10T00:57:56;14.00;99.90
14144;DHT22;7152;48.348;10.980;2023-05-10T01:00:21;14.00;99.90
14144;DHT22;7152;48.348;10.980;2023-05-10T01:02:47;14.00;99.90
14144;DHT22;7152;48.348;10.980;2023-05-10T01:05:13;14.00;99.90
14144;DHT22;7152;48.348;10.980;2023-05-10T01:07:39;14.00;99.90
14144;DHT22;7152;48.348;10.980;2023-05-10T01:10:06;14.00;99.90
14144;DHT22;7152;48.348;10.980;2023-05-10T01:12:37;14.00;99.90
14144;DHT22;7152;48.348;10.980;2023-05-10T01:15:05;14.00;99.90
14144;DHT22;7152;48.348;10.980;2023-05-10T01:17:31;13.90;99.90
14144;DHT22;7152;48.348;10.980;2023-05-10T01:19:57;13.90;99.90
14144;DHT22;7152;48.348;10.980;2023-05-10T01:25:24;14.00;99.90
14144;DHT22;7152;48.348;10.980;2023-05-10T01:28:35;13.90;99.90
14144;DHT22;7152;48.348;10.980;2023-05-10T01:34:06;13.90;99.90
14144;DHT22;7152;48.348;10.980;2023-05-10T01:36:51;13.90;99.90
14144;DHT22;7152;48.348;10.980;2023-05-10T01:41:54;13.80;99.90
14144;DHT22;7152;48.348;10.980;2023-05-10T01:47:14;13.90;99.90
14144;DHT22;7152;48.348;10.980;2023-05-10T01:49:43;13.80;99.90
14144;DHT22;7152;48.348;10.980;2023-05-10T01:52:18;13.80;99.90
14144;DHT22;7152;48.348;10.980;2023-05-10T01:54:56;13.80;99.90
14144;DHT22;7152;48.348;10.980;2023-05-10T01:57:27;13.70;99.90
14144;DHT22;7152;48.348;10.980;2023-05-10T01:59:57;13.80;99.90
14144;DHT22;7152;48.348;10.980;2023-05-10T02:02:26;13.70;99.90
14144;DHT22;7152;48.348;10.980;2023-05-10T02:04:53;13.70;99.90
14144;DHT22;7152;48.348;10.980;2023-05-10T02:07:21;13.70;99.90
14144;DHT22;7152;48.348;10.980;2023-05-10T02:09:48;13.70;99.90
14144;DHT22;7152;48.348;10.980;2023-05-10T02:12:15;13.70;99.90
14144;DHT22;7152;48.348;10.980;2023-05-10T02:14:42;13.70;99.90
14144;DHT22;7152;48.348;10.980;2023-05-10T02:17:09;13.70;99.90
14144;DHT22;7152;48.348;10.980;2023-05-10T02:19:38;13.70;99.90
14144;DHT22;7152;48.348;10.980;2023-05-10T02:22:05;13.70;99.90
14144;DHT22;7152;48.348;10.980;2023-05-10T02:24:32;13.60;99.90
14144;DHT22;7152;48.348;10.980;2023-05-10T02:26:58;13.60;99.90
14144;DHT22;7152;48.348;10.980;2023-05-10T02:29:26;13.60;99.90
14144;DHT22;7152;48.348;10.980;2023-05-10T02:31:53;13.60;99.90
14144;DHT22;7152;48.348;10.980;2023-05-10T02:34:21;13.60;99.90
14144;DHT22;7152;48.348;10.980;2023-05-10T02:36:48;13.60;99.90
14144;DHT22;7152;48.348;10.980;2023-05-10T02:39:14;13.50;99.90
14144;DHT22;7152;48.348;10.980;2023-05-10T02:41:42;13.50;99.90
14144;DHT22;7152;48.348;10.980;2023-05-10T02:44:09;13.50;99.90
14144;DHT22;7152;48.348;10.980;2023-05-10T02:46:36;13.50;99.90
14144;DHT22;7152;48.348;10.980;2023-05-10T02:49:03;13.50;99.90
14144;DHT22;7152;48.348;10.980;2023-05-10T02:51:31;13.40;99.90
14144;DHT22;7152;48.348;10.980;2023-05-10T02:54:03;13.50;99.90
14144;DHT22;7152;48.348;10.980;2023-05-10T02:56:34;13.50;99.90
14144;DHT22;7152;48.348;10.980;2023-05-10T02:59:01;13.40;99.90
14144;DHT22;7152;48.348;10.980;2023-05-10T03:01:26;13.40;99.90
14144;DHT22;7152;48.348;10.980;2023-05-10T03:03:52;13.40;99.90
14144;DHT22;7152;48.348;10.980;2023-05-10T03:06:18;13.40;99.90
14144;DHT22;7152;48.348;10.980;2023-05-10T03:08:44;13.40;99.90
14144;DHT22;7152;48.348;10.980;2023-05-10T03:11:39;13.40;99.90
14144;DHT22;7152;48.348;10.980;2023-05-10T03:17:24;13.30;99.90
14144;DHT22;7152;48.348;10.980;2023-05-10T03:19:54;13.30;99.90
14144;DHT22;7152;48.348;10.980;2023-05-10T03:22:24;13.30;99.90
14144;DHT22;7152;48.348;10.980;2023-05-10T03:24:54;13.30;99.90
14144;DHT22;7152;48.348;10.980;2023-05-10T03:27:22;13.30;99.90
14144;DHT22;7152;48.348;10.980;2023-05-10T03:29:48;13.30;99.90
14144;DHT22;7152;48.348;10.980;2023-05-10T03:32:16;13.30;99.90
14144;DHT22;7152;48.348;10.980;2023-05-10T03:34:42;13.30;99.90
14144;DHT22;7152;48.348;10.980;2023-05-10T03:37:10;13.30;99.90
14144;DHT22;7152;48.348;10.980;2023-05-10T03:39:36;13.20;99.90
14144;DHT22;7152;48.348;10.980;2023-05-10T03:42:02;13.30;99.90
14144;DHT22;7152;48.348;10.980;2023-05-10T03:44:27;13.20;99.90
14144;DHT22;7152;48.348;10.980;2023-05-10T03:46:53;13.20;99.90
14144;DHT22;7152;48.348;10.980;2023-05-10T03:49:19;13.20;99.90
14144;DHT22;7152;48.348;10.980;2023-05-10T03:51:44;13.20;99.90
14144;DHT22;7152;48.348;10.980;2023-05-10T03:54:10;13.20;99.90
14144;DHT22;7152;48.348;10.980;2023-05-10T03:56:35;13.20;99.90
14144;DHT22;7152;48.348;10.980;2023-05-10T03:59:01;13.20;99.90
14144;DHT22;7152;48.348;10.980;2023-05-10T04:01:26;13.10;99.90
14144;DHT22;7152;48.348;10.980;2023-05-10T04:03:52;13.10;99.90
14144;DHT22;7152;48.348;10.980;2023-05-10T04:06:18;13.10;99.90
14144;DHT22;7152;48.348;10.980;2023-05-10T04:08:43;13.00;99.90
14144;DHT22;7152;48.348;10.980;2023-05-10T04:11:11;13.00;99.90
14144;DHT22;7152;48.348;10.980;2023-05-10T04:13:38;12.90;99.90
14144;DHT22;7152;48.348;10.980;2023-05-10T04:16:04;12.90;99.90
14144;DHT22;7152;48.348;10.980;2023-05-10T04:18:30;12.80;99.90
14144;DHT22;7152;48.348;10.980;2023-05-10T04:20:55;12.70;99.90
14144;DHT22;7152;48.348;10.980;2023-05-10T04:23:21;12.60;99.90
14144;DHT22;7152;48.348;10.980;2023-05-10T04:25:46;12.60;99.90
14144;DHT22;7152;48.348;10.980;2023-05-10T04:28:12;12.60;99.90
14144;DHT22;7152;48.348;10.980;2023-05-10T04:30:38;12.50;99.90
14144;DHT22;7152;48.348;10.980;2023-05-10T04:33:04;12.50;99.90
14144;DHT22;7152;48.348;10.980;2023-05-10T04:35:29;12.50;99.90
14144;DHT22;7152;48.348;10.980;2023-05-10T04:37:55;12.50;99.90
14144;DHT22;7152;48.348;10.980;2023-05-10T04:40:21;12.50;99.90
14144;DHT22;7152;48.348;10.980;2023-05-10T04:42:46;12.60;99.90
14144;DHT22;7152;48.348;10.980;2023-05-10T04:45:12;12.60;99.90
14144;DHT22;7152;48.348;10.980;2023-05-10T04:47:40;12.60;99.90
14144;DHT22;7152;48.348;10.980;2023-05-10T04:50:06;12.60;99.90
14144;DHT22;7152;48.348;10.980;2023-05-10T04:52:31;12.60;99.90
14144;DHT22;7152;48.348;10.980;2023-05-10T04:54:57;12.60;99.90
14144;DHT22;7152;48.348;10.980;2023-05-10T04:57:23;12.70;99.90
14144;DHT22;7152;48.348;10.980;2023-05-10T04:59:48;12.70;99.90
14144;DHT22;7152;48.348;10.980;2023-05-10T05:02:14;12.80;99.90
14144;DHT22;7152;48.348;10.980;2023-05-10T05:04:39;12.80;99.90
14144;DHT22;7152;48.348;10.980;2023-05-10T05:07:05;12.80;99.90
14144;DHT22;7152;48.348;10.980;2023-05-10T05:09:31;12.90;99.90
14144;DHT22;7152;48.348;10.980;2023-05-10T05:11:57;12.90;99.90
14144;DHT22;7152;48.348;10.980;2023-05-10T05:14:23;12.90;99.90
14144;DHT22;7152;48.348;10.980;2023-05-10T05:16:53;12.90;99.90
14144;DHT22;7152;48.348;10.980;2023-05-10T05:19:19;12.90;99.90
14144;DHT22;7152;48.348;10.980;2023-05-10T05:21:45;12.90;99.90
14144;DHT22;7152;48.348;10.980;2023-05-10T05:24:10;12.90;99.90
14144;DHT22;7152;48.348;10.980;2023-05-10T05:26:38;12.90;99.90
14144;DHT22;7152;48.348;10.980;2023-05-10T05:29:03;13.00;99.90
14144;DHT22;7152;48.348;10.980;2023-05-10T05:31:29;13.00;99.90
14144;DHT22;7152;48.348;10.980;2023-05-10T05:33:55;13.10;99.90
14144;DHT22;7152;48.348;10.980;2023-05-10T05:36:21;13.10;99.90
14144;DHT22;7152;48.348;10.980;2023-05-10T05:38:47;13.20;99.90
14144;DHT22;7152;48.348;10.980;2023-05-10T05:41:13;13.20;99.90
14144;DHT22;7152;48.348;10.980;2023-05-10T05:43:38;13.30;99.90
14144;DHT22;7152;48.348;10.980;2023-05-10T05:46:07;13.30;99.90
14144;DHT22;7152;48.348;10.980;2023-05-10T05:48:33;13.40;99.90
14144;DHT22;7152;48.348;10.980;2023-05-10T05:50:58;13.50;99.90
14144;DHT22;7152;48.348;10.980;2023-05-10T05:53:24;13.50;99.90
14144;DHT22;7152;48.348;10.980;2023-05-10T05:55:54;13.50;99.90
14144;DHT22;7152;48.348;10.980;2023-05-10T05:58:21;13.60;99.90
14144;DHT22;7152;48.348;10.980;2023-05-10T06:00:47;13.60;99.90
14144;DHT22;7152;48.348;10.980;2023-05-10T06:03:12;13.60;99.90
14144;DHT22;7152;48.348;10.980;2023-05-10T06:05:38;13.70;99.90
14144;DHT22;7152;48.348;10.980;2023-05-10T06:08:04;13.70;99.90
14144;DHT22;7152;48.348;10.980;2023-05-10T06:10:29;13.70;99.90
14144;DHT22;7152;48.348;10.980;2023-05-10T06:12:55;13.70;99.90
14144;DHT22;7152;48.348;10.980;2023-05-10T06:15:21;13.80;99.90
14144;DHT22;7152;48.348;10.980;2023-05-10T06:17:47;13.80;99.90
14144;DHT22;7152;48.348;10.980;2023-05-10T06:20:14;13.80;99.90
14144;DHT22;7152;48.348;10.980;2023-05-10T06:22:40;13.80;99.90
14144;DHT22;7152;48.348;10.980;2023-05-10T06:25:07;13.80;99.90
14144;DHT22;7152;48.348;10.980;2023-05-10T06:27:32;13.90;99.90
14144;DHT22;7152;48.348;10.980;2023-05-10T06:29:58;13.90;99.90
14144;DHT22;7152;48.348;10.980;2023-05-10T06:32:24;14.00;99.90
14144;DHT22;7152;48.348;10.980;2023-05-10T06:34:50;14.00;99.90
14144;DHT22;7152;48.348;10.980;2023-05-10T06:37:15;14.10;99.90
14144;DHT22;7152;48.348;10.980;2023-05-10T06:39:41;14.10;99.90
14144;DHT22;7152;48.348;10.980;2023-05-10T06:42:07;14.20;99.90
14144;DHT22;7152;48.348;10.980;2023-05-10T06:44:33;14.20;99.90
14144;DHT22;7152;48.348;10.980;2023-05-10T06:46:59;14.30;99.90
14144;DHT22;7152;48.348;10.980;2023-05-10T06:49:24;14.30;99.90
14144;DHT22;7152;48.348;10.980;2023-05-10T06:51:50;14.30;99.90
14144;DHT22;7152;48.348;10.980;2023-05-10T06:54:15;14.40;99.90
14144;DHT22;7152;48.348;10.980;2023-05-10T06:56:41;14.40;99.90
14144;DHT22;7152;48.348;10.980;2023-05-10T06:59:07;14.50;99.90
14144;DHT22;7152;48.348;10.980;2023-05-10T07:01:32;14.60;99.90
14144;DHT22;7152;48.348;10.980;2023-05-10T07:03:58;14.60;99.90
14144;DHT22;7152;48.348;10.980;2023-05-10T07:06:24;14.70;99.90
14144;DHT22;7152;48.348;10.980;2023-05-10T07:08:49;14.70;99.90
14144;DHT22;7152;48.348;10.980;2023-05-10T07:11:15;14.80;99.90
14144;DHT22;7152;48.348;10.980;2023-05-10T07:13:40;15.00;99.90
14144;DHT22;7152;48.348;10.980;2023-05-10T07:16:09;15.00;99.90
14144;DHT22;7152;48.348;10.980;2023-05-10T07:18:35;15.10;99.90
14144;DHT22;7152;48.348;10.980;2023-05-10T07:21:01;15.10;99.90
14144;DHT22;7152;48.348;10.980;2023-05-10T07:23:27;15.30;99.90
14144;DHT22;7152;48.348;10.980;2023-05-10T07:25:53;15.50;99.90
14144;DHT22;7152;48.348;10.980;2023-05-10T07:28:19;15.60;99.90
14144;DHT22;7152;48.348;10.980;2023-05-10T07:30:45;15.80;99.90
14144;DHT22;7152;48.348;10.980;2023-05-10T07:33:12;15.80;99.90
14144;DHT22;7152;48.348;10.980;2023-05-10T07:35:38;15.90;99.90
14144;DHT22;7152;48.348;10.980;2023-05-10T07:38:04;15.90;99.90
14144;DHT22;7152;48.348;10.980;2023-05-10T07:40:29;15.80;99.90
14144;DHT22;7152;48.348;10.980;2023-05-10T07:42:55;15.80;99.90
14144;DHT22;7152;48.348;10.980;2023-05-10T07:45:22;15.80;99.90
14144;DHT22;7152;48.348;10.980;2023-05-10T07:47:47;15.70;99.90
14144;DHT22;7152;48.348;10.980;2023-05-10T07:50:13;15.70;99.90
14144;DHT22;7152;48.348;10.980;2023-05-10T07:52:39;15.90;99.90
14144;DHT22;7152;48.348;10.980;2023-05-10T07:55:05;15.90;99.90
14144;DHT22;7152;48.348;10.980;2023-05-10T07:57:33;16.00;99.90
14144;DHT22;7152;48.348;10.980;2023-05-10T07:59:58;16.00;99.90
14144;DHT22;7152;48.348;10.980;2023-05-10T08:02:24;15.90;99.90
14144;DHT22;7152;48.348;10.980;2023-05-10T08:04:50;15.90;99.90
14144;DHT22;7152;48.348;10.980;2023-05-10T08:07:15;15.90;99.90
14144;DHT22;7152;48.348;10.980;2023-05-10T08:09:41;15.90;99.90
14144;DHT22;7152;48.348;10.980;2023-05-10T08:12:07;15.90;99.90
14144;DHT22;7152;48.348;10.980;2023-05-10T08:14:32;15.90;99.90
14144;DHT22;7152;48.348;10.980;2023-05-10T08:16:58;15.90;99.90
14144;DHT22;7152;48.348;10.980;2023-05-10T08:19:24;16.00;99.90
14144;DHT22;7152;48.348;10.980;2023-05-10T08:21:49;16.00;99.90
14144;DHT22;7152;48.348;10.980;2023-05-10T08:24:15;16.10;99.90
14144;DHT22;7152;48.348;10.980;2023-05-10T08:26:41;16.10;99.90
14144;DHT22;7152;48.348;10.980;2023-05-10T08:29:06;16.30;99.90
14144;DHT22;7152;48.348;10.980;2023-05-10T08:31:32;16.60;99.90
14144;DHT22;7152;48.348;10.980;2023-05-10T08:33:57;16.60;99.90
14144;DHT22;7152;48.348;10.980;2023-05-10T08:36:23;16.90;99.90
14144;DHT22;7152;48.348;10.980;2023-05-10T08:38:53;17.00;99.90
14144;DHT22;7152;48.348;10.980;2023-05-10T08:41:22;17.00;99.90
14144;DHT22;7152;48.348;10.980;2023-05-10T08:43:50;17.00;99.90
14144;DHT22;7152;48.348;10.980;2023-05-10T08:46:18;17.10;99.90
14144;DHT22;7152;48.348;10.980;2023-05-10T08:48:48;17.00;99.90
14144;DHT22;7152;48.348;10.980;2023-05-10T08:51:21;16.90;99.90
14144;DHT22;7152;48.348;10.980;2023-05-10T08:53:47;16.80;99.90
14144;DHT22;7152;48.348;10.980;2023-05-10T08:56:14;16.70;99.90
14144;DHT22;7152;48.348;10.980;2023-05-10T08:58:42;16.60;99.90
14144;DHT22;7152;48.348;10.980;2023-05-10T09:01:08;16.40;99.90
14144;DHT22;7152;48.348;10.980;2023-05-10T09:03:35;16.40;99.90
14144;DHT22;7152;48.348;10.980;2023-05-10T09:06:01;16.30;99.90
14144;DHT22;7152;48.348;10.980;2023-05-10T09:08:26;16.30;99.90
14144;DHT22;7152;48.348;10.980;2023-05-10T09:10:53;16.50;99.90
14144;DHT22;7152;48.348;10.980;2023-05-10T09:13:19;16.80;99.90
14144;DHT22;7152;48.348;10.980;2023-05-10T09:15:47;17.10;99.90
14144;DHT22;7152;48.348;10.980;2023-05-10T09:18:13;17.30;99.90
14144;DHT22;7152;48.348;10.980;2023-05-10T09:20:39;17.50;99.90
14144;DHT22;7152;48.348;10.980;2023-05-10T09:23:05;17.50;99.90
14144;DHT22;7152;48.348;10.980;2023-05-10T09:25:31;17.70;99.90
14144;DHT22;7152;48.348;10.980;2023-05-10T09:27:59;17.60;99.90
14144;DHT22;7152;48.348;10.980;2023-05-10T09:30:27;17.80;99.90
14144;DHT22;7152;48.348;10.980;2023-05-10T09:32:54;17.80;99.90
14144;DHT22;7152;48.348;10.980;2023-05-10T09:35:22;17.60;99.90
14144;DHT22;7152;48.348;10.980;2023-05-10T09:37:51;17.20;99.90
14144;DHT22;7152;48.348;10.980;2023-05-10T09:40:23;16.90;99.90
14144;DHT22;7152;48.348;10.980;2023-05-10T09:43:00;16.70;99.90
14144;DHT22;7152;48.348;10.980;2023-05-10T09:45:29;16.60;99.90
14144;DHT22;7152;48.348;10.980;2023-05-10T09:47:55;17.30;99.90
14144;DHT22;7152;48.348;10.980;2023-05-10T09:50:22;17.60;99.90
14144;DHT22;7152;48.348;10.980;2023-05-10T09:52:59;17.70;99.90
14144;DHT22;7152;48.348;10.980;2023-05-10T09:55:41;17.40;99.90
14144;DHT22;7152;48.348;10.980;2023-05-10T09:58:09;17.10;99.90
14144;DHT22;7152;48.348;10.980;2023-05-10T10:00:41;16.50;99.90
14144;DHT22;7152;48.348;10.980;2023-05-10T10:03:15;16.10;99.90
14144;DHT22;7152;48.348;10.980;2023-05-10T10:05:42;15.60;99.90
14144;DHT22;7152;48.348;10.980;2023-05-10T10:08:09;15.30;99.90
14144;DHT22;7152;48.348;10.980;2023-05-10T10:10:34;15.00;99.90
14144;DHT22;7152;48.348;10.980;2023-05-10T10:13:01;14.80;99.90
14144;DHT22;7152;48.348;10.980;2023-05-10T10:15:27;14.70;99.90
14144;DHT22;7152;48.348;10.980;2023-05-10T10:17:53;14.70;99.90
14144;DHT22;7152;48.348;10.980;2023-05-10T10:20:20;14.70;99.90
14144;DHT22;7152;48.348;10.980;2023-05-10T10:22:47;14.80;99.90
14144;DHT22;7152;48.348;10.980;2023-05-10T10:25:15;14.90;99.90
14144;DHT22;7152;48.348;10.980;2023-05-10T10:30:35;15.00;99.90
14144;DHT22;7152;48.348;10.980;2023-05-10T10:35:53;15.20;99.90
14144;DHT22;7152;48.348;10.980;2023-05-10T10:38:20;15.40;99.90
14144;DHT22;7152;48.348;10.980;2023-05-10T10:40:46;15.60;99.90
14144;DHT22;7152;48.348;10.980;2023-05-10T10:43:28;15.80;99.90
14144;DHT22;7152;48.348;10.980;2023-05-10T10:46:15;16.00;99.90
14144;DHT22;7152;48.348;10.980;2023-05-10T10:48:50;16.10;99.90
14144;DHT22;7152;48.348;10.980;2023-05-10T10:51:36;16.20;99.90
14144;DHT22;7152;48.348;10.980;2023-05-10T10:54:09;16.20;99.90
14144;DHT22;7152;48.348;10.980;2023-05-10T10:56:35;16.10;99.90
14144;DHT22;7152;48.348;10.980;2023-05-10T10:59:01;16.30;99.90
14144;DHT22;7152;48.348;10.980;2023-05-10T11:01:33;16.30;99.90
14144;DHT22;7152;48.348;10.980;2023-05-10T11:06:31;16.20;99.90
14144;DHT22;7152;48.348;10.980;2023-05-10T11:08:58;16.00;99.90
14144;DHT22;7152;48.348;10.980;2023-05-10T11:11:23;15.80;99.90
14144;DHT22;7152;48.348;10.980;2023-05-10T11:13:49;15.60;99.90
14144;DHT22;7152;48.348;10.980;2023-05-10T11:19:16;15.60;99.90
14144;DHT22;7152;48.348;10.980;2023-05-10T11:24:16;15.60;99.90
14144;DHT22;7152;48.348;10.980;2023-05-10T11:26:42;15.70;99.90
14144;DHT22;7152;48.348;10.980;2023-05-10T11:29:08;15.90;99.90
14144;DHT22;7152;48.348;10.980;2023-05-10T11:31:35;15.90;99.90
14144;DHT22;7152;48.348;10.980;2023-05-10T11:34:06;15.90;99.90
14144;DHT22;7152;48.348;10.980;2023-05-10T11:36:35;15.90;99.90
14144;DHT22;7152;48.348;10.980;2023-05-10T11:39:01;16.00;99.90
14144;DHT22;7152;48.348;10.980;2023-05-10T11:41:28;16.10;99.90
14144;DHT22;7152;48.348;10.980;2023-05-10T11:43:54;16.30;99.90
14144;DHT22;7152;48.348;10.980;2023-05-10T11:46:22;16.30;99.90
14144;DHT22;7152;48.348;10.980;2023-05-10T11:48:55;16.20;99.90
14144;DHT22;7152;48.348;10.980;2023-05-10T11:51:22;16.20;99.90
14144;DHT22;7152;48.348;10.980;2023-05-10T11:53:49;16.10;99.90
14144;DHT22;7152;48.348;10.980;2023-05-10T11:56:15;16.00;99.90
14144;DHT22;7152;48.348;10.980;2023-05-10T11:58:41;16.00;99.90
14144;DHT22;7152;48.348;10.980;2023-05-10T12:01:08;16.00;99.90
14144;DHT22;7152;48.348;10.980;2023-05-10T12:03:34;16.00;99.90
14144;DHT22;7152;48.348;10.980;2023-05-10T12:06:01;16.00;99.90
14144;DHT22;7152;48.348;10.980;2023-05-10T12:08:29;16.10;99.90
14144;DHT22;7152;48.348;10.980;2023-05-10T12:11:07;16.10;99.90
14144;DHT22;7152;48.348;10.980;2023-05-10T12:13:38;16.30;99.90
14144;DHT22;7152;48.348;10.980;2023-05-10T12:16:16;16.50;99.90
14144;DHT22;7152;48.348;10.980;2023-05-10T12:18:41;16.50;99.90
14144;DHT22;7152;48.348;10.980;2023-05-10T12:21:13;16.70;99.90
14144;DHT22;7152;48.348;10.980;2023-05-10T12:23:39;16.80;99.90
14144;DHT22;7152;48.348;10.980;2023-05-10T12:26:05;16.70;99.90
14144;DHT22;7152;48.348;10.980;2023-05-10T12:28:32;16.60;99.90
14144;DHT22;7152;48.348;10.980;2023-05-10T12:30:59;16.20;99.90
14144;DHT22;7152;48.348;10.980;2023-05-10T12:33:25;15.80;99.90
14144;DHT22;7152;48.348;10.980;2023-05-10T12:35:52;15.40;99.90
14144;DHT22;7152;48.348;10.980;2023-05-10T12:38:25;15.00;99.90
14144;DHT22;7152;48.348;10.980;2023-05-10T12:40:51;14.70;99.90
14144;DHT22;7152;48.348;10.980;2023-05-10T12:43:17;14.50;99.90
14144;DHT22;7152;48.348;10.980;2023-05-10T12:45:42;14.40;99.90
14144;DHT22;7152;48.348;10.980;2023-05-10T12:48:13;14.30;99.90
14144;DHT22;7152;48.348;10.980;2023-05-10T12:50:38;14.20;99.90
14144;DHT22;7152;48.348;10.980;2023-05-10T12:53:04;14.30;99.90
14144;DHT22;7152;48.348;10.980;2023-05-10T12:55:30;14.30;99.90
14144;DHT22;7152;48.348;10.980;2023-05-10T12:57:55;14.50;99.90
14144;DHT22;7152;48.348;10.980;2023-05-10T13:00:21;14.50;99.90
14144;DHT22;7152;48.348;10.980;2023-05-10T13:02:47;14.70;99.90
14144;DHT22;7152;48.348;10.980;2023-05-10T13:05:12;14.70;99.90
14144;DHT22;7152;48.348;10.980;2023-05-10T13:07:38;14.80;99.90
14144;DHT22;7152;48.348;10.980;2023-05-10T13:10:05;14.80;99.90
14144;DHT22;7152;48.348;10.980;2023-05-10T13:12:31;14.90;99.90
14144;DHT22;7152;48.348;10.980;2023-05-10T13:14:57;14.90;99.90
14144;DHT22;7152;48.348;10.980;2023-05-10T13:17:23;14.70;99.90
14144;DHT22;7152;48.348;10.980;2023-05-10T13:19:49;14.60;99.90
14144;DHT22;7152;48.348;10.980;2023-05-10T13:22:14;14.40;99.90
14144;DHT22;7152;48.348;10.980;2023-05-10T13:24:40;14.20;99.90
14144;DHT22;7152;48.348;10.980;2023-05-10T13:27:05;14.00;99.90
14144;DHT22;7152;48.348;10.980;2023-05-10T13:29:31;13.90;99.90
14144;DHT22;7152;48.348;10.980;2023-05-10T13:31:57;13.80;99.90
14144;DHT22;7152;48.348;10.980;2023-05-10T13:34:23;13.70;99.90
14144;DHT22;7152;48.348;10.980;2023-05-10T13:36:49;13.60;99.90
14144;DHT22;7152;48.348;10.980;2023-05-10T13:39:15;13.50;99.90
14144;DHT22;7152;48.348;10.980;2023-05-10T13:41:40;13.50;99.90
14144;DHT22;7152;48.348;10.980;2023-05-10T13:44:06;13.60;99.90
14144;DHT22;7152;48.348;10.980;2023-05-10T13:46:32;13.60;99.90
14144;DHT22;7152;48.348;10.980;2023-05-10T13:48:58;13.70;99.90
14144;DHT22;7152;48.348;10.980;2023-05-10T13:51:23;13.70;99.90
14144;DHT22;7152;48.348;10.980;2023-05-10T13:53:49;13.70;99.90
14144;DHT22;7152;48.348;10.980;2023-05-10T13:56:15;13.80;99.90
14144;DHT22;7152;48.348;10.980;2023-05-10T13:58:41;13.80;99.90
14144;DHT22;7152;48.348;10.980;2023-05-10T14:01:06;13.80;99.90
14144;DHT22;7152;48.348;10.980;2023-05-10T14:03:33;13.70;99.90
14144;DHT22;7152;48.348;10.980;2023-05-10T14:05:58;13.70;99.90
14144;DHT22;7152;48.348;10.980;2023-05-10T14:08:24;13.70;99.90
14144;DHT22;7152;48.348;10.980;2023-05-10T14:10:49;13.80;99.90
14144;DHT22;7152;48.348;10.980;2023-05-10T14:13:16;13.90;99.90
14144;DHT22;7152;48.348;10.980;2023-05-10T14:15:41;13.90;99.90
14144;DHT22;7152;48.348;10.980;2023-05-10T14:18:07;13.90;99.90
14144;DHT22;7152;48.348;10.980;2023-05-10T14:20:33;13.80;99.90
14144;DHT22;7152;48.348;10.980;2023-05-10T14:22:59;13.70;99.90
14144;DHT22;7152;48.348;10.980;2023-05-10T14:25:25;13.40;99.90
14144;DHT22;7152;48.348;10.980;2023-05-10T14:27:51;13.00;99.90
14144;DHT22;7152;48.348;10.980;2023-05-10T14:30:19;12.70;99.90
14144;DHT22;7152;48.348;10.980;2023-05-10T14:32:45;12.60;99.90
14144;DHT22;7152;48.348;10.980;2023-05-10T14:35:10;12.50;99.90
14144;DHT22;7152;48.348;10.980;2023-05-10T14:37:38;12.40;99.90
14144;DHT22;7152;48.348;10.980;2023-05-10T14:40:04;12.30;99.90
14144;DHT22;7152;48.348;10.980;2023-05-10T14:42:30;12.20;99.90
14144;DHT22;7152;48.348;10.980;2023-05-10T14:44:56;12.10;99.90
14144;DHT22;7152;48.348;10.980;2023-05-10T14:47:22;12.10;99.90
14144;DHT22;7152;48.348;10.980;2023-05-10T14:49:48;12.00;99.90
14144;DHT22;7152;48.348;10.980;2023-05-10T14:52:13;12.00;99.90
14144;DHT22;7152;48.348;10.980;2023-05-10T14:54:39;12.00;99.90
14144;DHT22;7152;48.348;10.980;2023-05-10T14:57:06;12.00;99.90
14144;DHT22;7152;48.348;10.980;2023-05-10T14:59:32;12.00;99.90
14144;DHT22;7152;48.348;10.980;2023-05-10T15:01:57;12.00;99.90
14144;DHT22;7152;48.348;10.980;2023-05-10T15:04:23;12.00;99.90
14144;DHT22;7152;48.348;10.980;2023-05-10T15:06:48;12.00;99.90
14144;DHT22;7152;48.348;10.980;2023-05-10T15:09:14;11.90;99.90
14144;DHT22;7152;48.348;10.980;2023-05-10T15:11:42;12.00;99.90
14144;DHT22;7152;48.348;10.980;2023-05-10T15:14:07;12.00;99.90
14144;DHT22;7152;48.348;10.980;2023-05-10T15:16:33;12.00;99.90
14144;DHT22;7152;48.348;10.980;2023-05-10T15:18:58;12.00;99.90
14144;DHT22;7152;48.348;10.980;2023-05-10T15:21:24;12.00;99.90
14144;DHT22;7152;48.348;10.980;2023-05-10T15:23:50;12.00;99.90
14144;DHT22;7152;48.348;10.980;2023-05-10T15:26:15;12.10;99.90
14144;DHT22;7152;48.348;10.980;2023-05-10T15:28:41;12.10;99.90
14144;DHT22;7152;48.348;10.980;2023-05-10T15:31:07;12.10;99.90
14144;DHT22;7152;48.348;10.980;2023-05-10T15:33:32;12.20;99.90
14144;DHT22;7152;48.348;10.980;2023-05-10T15:35:58;12.20;99.90
14144;DHT22;7152;48.348;10.980;2023-05-10T15:38:23;12.20;99.90
14144;DHT22;7152;48.348;10.980;2023-05-10T15:40:49;12.20;99.90
14144;DHT22;7152;48.348;10.980;2023-05-10T15:43:15;12.10;99.90
14144;DHT22;7152;48.348;10.980;2023-05-10T15:45:41;12.10;99.90
14144;DHT22;7152;48.348;10.980;2023-05-10T15:48:07;12.00;99.90
14144;DHT22;7152;48.348;10.980;2023-05-10T15:50:32;12.00;99.90
14144;DHT22;7152;48.348;10.980;2023-05-10T15:52:58;12.00;99.90
14144;DHT22;7152;48.348;10.980;2023-05-10T15:55:23;12.00;99.90
14144;DHT22;7152;48.348;10.980;2023-05-10T15:57:49;12.10;99.90